createdAt,value
2022-08-25T00:01:27.009Z,2.78
2022-08-25T00:03:55.825Z,2.33
2022-08-25T00:06:24.090Z,2.10
2022-08-25T00:08:51.225Z,1.80
2022-08-25T00:11:23.972Z,2.22
2022-08-25T00:13:58.318Z,1.90
2022-08-25T00:16:26.207Z,1.90
2022-08-25T00:18:56.714Z,2.20
2022-08-25T00:21:24.824Z,1.80
2022-08-25T00:23:51.656Z,2.35
2022-08-25T00:26:19.321Z,2.30
2022-08-25T00:28:45.963Z,1.80
2022-08-25T00:31:15.267Z,1.90
2022-08-25T00:33:43.824Z,1.85
2022-08-25T00:36:12.453Z,1.98
2022-08-25T00:38:44.744Z,2.28
2022-08-25T00:41:14.241Z,2.10
2022-08-25T00:43:40.742Z,1.77
2022-08-25T00:46:09.478Z,1.85
2022-08-25T00:48:38.685Z,2.22
2022-08-25T00:51:09.615Z,3.00
2022-08-25T00:53:36.619Z,2.47
2022-08-25T00:56:03.687Z,2.03
2022-08-25T00:58:34.318Z,1.60
2022-08-25T01:01:01.444Z,1.83
2022-08-25T01:03:35.557Z,1.75
2022-08-25T01:06:05.178Z,2.20
2022-08-25T01:08:32.633Z,2.15
2022-08-25T01:11:02.621Z,2.15
2022-08-25T01:13:34.472Z,2.30
2022-08-25T01:16:02.015Z,2.20
2022-08-25T01:18:29.047Z,2.10
2022-08-25T01:20:57.177Z,2.10
2022-08-25T01:23:24.756Z,2.45
2022-08-25T01:26:01.751Z,2.38
2022-08-25T01:28:28.570Z,2.00
2022-08-25T01:30:55.305Z,2.22
2022-08-25T01:33:23.277Z,2.58
2022-08-25T01:35:50.111Z,2.63
2022-08-25T01:38:16.841Z,2.28
2022-08-25T01:40:44.073Z,2.38
2022-08-25T01:43:10.704Z,2.13
2022-08-25T01:45:39.956Z,2.80
2022-08-25T01:48:07.638Z,2.28
2022-08-25T01:50:34.499Z,2.35
2022-08-25T01:53:08.569Z,2.40
2022-08-25T01:55:51.688Z,2.40
2022-08-25T01:58:27.904Z,2.28
2022-08-25T02:00:57.232Z,2.30
2022-08-25T02:03:25.821Z,2.45
2022-08-25T02:05:53.760Z,3.00
2022-08-25T02:08:21.920Z,2.17
2022-08-25T02:10:49.249Z,2.50
2022-08-25T02:13:16.778Z,2.42
2022-08-25T02:15:46.435Z,2.40
2022-08-25T02:18:13.078Z,2.17
2022-08-25T02:20:39.782Z,1.85
2022-08-25T02:23:06.361Z,2.10
2022-08-25T02:25:33.808Z,2.20
2022-08-25T02:28:00.801Z,1.90
2022-08-25T02:30:27.570Z,2.20
2022-08-25T02:32:54.190Z,2.25
2022-08-25T02:35:21.454Z,2.30
2022-08-25T02:37:48.023Z,1.90
2022-08-25T02:40:14.715Z,2.10
2022-08-25T02:42:42.717Z,2.25
2022-08-25T02:45:09.527Z,2.92
2022-08-25T02:47:37.146Z,2.13
2022-08-25T02:50:07.950Z,1.75
2022-08-25T02:52:35.613Z,1.80
2022-08-25T02:55:04.871Z,1.90
2022-08-25T02:57:31.924Z,1.95
2022-08-25T02:59:59.021Z,1.95
2022-08-25T03:02:27.834Z,2.05
2022-08-25T03:04:55.071Z,2.05
2022-08-25T03:07:21.991Z,2.00
2022-08-25T03:09:51.456Z,2.20
2022-08-25T03:12:18.023Z,2.08
2022-08-25T03:14:44.608Z,2.30
2022-08-25T03:17:11.285Z,2.00
2022-08-25T03:19:37.869Z,2.38
2022-08-25T03:22:04.638Z,2.00
2022-08-25T03:24:31.614Z,1.90
2022-08-25T03:26:58.211Z,2.05
2022-08-25T03:29:33.008Z,2.53
2022-08-25T03:32:00.634Z,2.07
2022-08-25T03:34:29.815Z,1.98
2022-08-25T03:36:57.141Z,2.00
2022-08-25T03:39:25.905Z,2.30
2022-08-25T03:41:53.176Z,2.42
2022-08-25T03:44:21.104Z,2.45
2022-08-25T03:46:51.438Z,2.08
2022-08-25T03:49:22.690Z,2.13
2022-08-25T03:51:51.665Z,1.95
2022-08-25T03:54:23.972Z,2.30
2022-08-25T03:56:51.073Z,2.17
2022-08-25T03:59:18.263Z,2.30
2022-08-25T04:01:48.422Z,2.28
2022-08-25T04:04:18.340Z,2.08
2022-08-25T04:06:45.168Z,1.60
2022-08-25T04:09:12.559Z,2.60
2022-08-25T04:11:39.418Z,2.13
2022-08-25T04:14:09.597Z,2.13
2022-08-25T04:16:42.429Z,2.53
2022-08-25T04:19:10.177Z,2.30
2022-08-25T04:21:38.974Z,2.53
2022-08-25T04:24:07.757Z,2.72
2022-08-25T04:26:37.943Z,2.15
2022-08-25T04:29:06.937Z,2.05
2022-08-25T04:31:34.209Z,2.28
2022-08-25T04:34:29.392Z,2.58
2022-08-25T04:36:52.860Z,2.08
2022-08-25T04:39:21.256Z,2.15
2022-08-25T04:41:48.903Z,2.55
2022-08-25T04:44:16.475Z,2.10
2022-08-25T04:46:43.799Z,2.67
2022-08-25T04:49:10.535Z,3.22
2022-08-25T04:51:40.369Z,2.40
2022-08-25T04:54:11.687Z,2.65
2022-08-25T04:56:40.902Z,3.15
2022-08-25T04:59:12.433Z,2.20
2022-08-25T05:01:40.500Z,2.63
2022-08-25T05:04:09.180Z,2.70
2022-08-25T05:06:42.171Z,2.50
2022-08-25T05:09:11.253Z,2.63
2022-08-25T05:11:39.134Z,2.53
2022-08-25T05:14:11.432Z,2.90
2022-08-25T05:16:39.077Z,3.53
2022-08-25T05:19:07.202Z,3.33
2022-08-25T05:21:33.835Z,2.33
2022-08-25T05:24:01.877Z,2.67
2022-08-25T05:26:31.426Z,3.05
2022-08-25T05:29:00.535Z,3.00
2022-08-25T05:31:28.402Z,2.85
2022-08-25T05:33:55.556Z,3.25
2022-08-25T05:36:23.201Z,3.13
2022-08-25T05:38:50.552Z,3.03
2022-08-25T05:41:20.438Z,3.05
2022-08-25T05:43:48.996Z,10.80
2022-08-25T05:46:17.872Z,3.22
2022-08-25T05:48:44.613Z,3.00
2022-08-25T05:51:12.698Z,2.65
2022-08-25T05:53:42.259Z,2.42
2022-08-25T05:56:09.394Z,3.05
2022-08-25T05:58:37.180Z,4.20
2022-08-25T06:01:23.436Z,3.00
2022-08-25T06:03:54.266Z,2.42
2022-08-25T06:06:23.393Z,2.70
2022-08-25T06:08:50.493Z,2.45
2022-08-25T06:11:17.526Z,2.67
2022-08-25T06:13:44.187Z,2.78
2022-08-25T06:16:10.967Z,2.80
2022-08-25T06:18:37.785Z,2.95
2022-08-25T06:21:18.597Z,2.35
2022-08-25T06:23:45.230Z,3.05
2022-08-25T06:26:20.621Z,3.53
2022-08-25T06:28:49.071Z,2.90
2022-08-25T06:31:15.757Z,2.80
2022-08-25T06:33:43.161Z,3.22
2022-08-25T06:36:09.936Z,2.97
2022-08-25T06:38:36.666Z,2.80
2022-08-25T06:41:05.538Z,3.33
2022-08-25T06:43:33.230Z,3.83
2022-08-25T06:46:18.640Z,2.92
2022-08-25T06:48:45.440Z,2.80
2022-08-25T06:55:24.074Z,3.10
2022-08-25T06:57:53.936Z,2.80
2022-08-25T07:00:23.045Z,2.72
2022-08-25T07:05:33.501Z,2.78
2022-08-25T07:08:07.312Z,3.28
2022-08-25T07:10:33.881Z,2.90
2022-08-25T07:13:01.548Z,3.45
2022-08-25T07:15:28.211Z,3.03
2022-08-25T07:17:54.814Z,3.13
2022-08-25T07:22:53.953Z,2.55
2022-08-25T07:25:20.532Z,3.47
2022-08-25T07:27:47.176Z,2.90
2022-08-25T07:30:14.628Z,3.22
2022-08-25T07:32:41.952Z,3.20
2022-08-25T07:35:19.195Z,2.85
2022-08-25T07:37:52.019Z,3.25
2022-08-25T07:40:29.079Z,3.40
2022-08-25T07:42:58.856Z,3.60
2022-08-25T07:45:31.553Z,3.17
2022-08-25T07:48:05.348Z,3.25
2022-08-25T07:50:33.162Z,2.83
2022-08-25T07:53:00.286Z,3.20
2022-08-25T07:55:28.329Z,3.10
2022-08-25T07:57:57.303Z,3.40
2022-08-25T08:00:27.528Z,3.20
2022-08-25T08:02:54.256Z,3.75
2022-08-25T08:05:21.323Z,3.25
2022-08-25T08:07:53.195Z,2.90
2022-08-25T08:13:10.183Z,2.80
2022-08-25T08:15:37.941Z,2.92
2022-08-25T08:18:07.183Z,2.92
2022-08-25T08:20:42.405Z,3.25
2022-08-25T08:23:10.660Z,3.03
2022-08-25T08:25:37.201Z,2.95
2022-08-25T08:28:04.113Z,2.88
2022-08-25T08:30:36.365Z,3.15
2022-08-25T08:33:12.404Z,3.40
2022-08-25T08:35:42.452Z,2.85
2022-08-25T08:38:16.209Z,3.15
2022-08-25T08:41:23.325Z,2.83
2022-08-25T08:44:01.139Z,2.80
2022-08-25T08:46:40.773Z,2.85
2022-08-25T08:49:27.695Z,3.08
2022-08-25T08:52:01.500Z,3.30
2022-08-25T08:54:34.983Z,2.97
2022-08-25T08:57:10.202Z,2.65
2022-08-25T09:00:00.572Z,3.30
2022-08-25T09:02:39.113Z,3.50
2022-08-25T09:05:21.191Z,3.10
2022-08-25T09:07:54.741Z,3.85
2022-08-25T09:10:24.214Z,3.20
2022-08-25T09:13:15.881Z,3.58
2022-08-25T09:16:22.419Z,2.95
2022-08-25T09:19:06.926Z,3.00
2022-08-25T09:22:04.515Z,3.40
2022-08-25T09:25:08.638Z,2.90
2022-08-25T09:27:47.245Z,3.17
2022-08-25T09:30:19.315Z,3.22
2022-08-25T09:33:02.057Z,2.70
2022-08-25T09:35:31.833Z,2.92
2022-08-25T09:38:01.255Z,3.40
2022-08-25T09:40:31.379Z,3.00
2022-08-25T09:43:01.148Z,3.00
2022-08-25T09:45:37.315Z,3.25
2022-08-25T09:48:24.683Z,3.13
2022-08-25T09:50:57.249Z,2.83
2022-08-25T09:53:25.176Z,2.72
2022-08-25T09:56:10.094Z,2.50
2022-08-25T09:58:38.225Z,2.80
2022-08-25T10:01:04.775Z,3.15
2022-08-25T10:03:36.674Z,2.80
2022-08-25T10:06:07.545Z,2.53
2022-08-25T10:08:55.484Z,2.70
2022-08-25T10:11:33.816Z,2.40
2022-08-25T10:14:22.115Z,2.53
2022-08-25T10:16:49.500Z,2.65
2022-08-25T10:19:30.217Z,2.30
2022-08-25T10:22:25.766Z,2.15
2022-08-25T10:24:52.871Z,2.83
2022-08-25T10:27:31.510Z,2.22
2022-08-25T10:30:42.829Z,2.30
2022-08-25T10:33:22.597Z,2.08
2022-08-25T10:36:09.609Z,2.45
2022-08-25T10:38:46.114Z,2.47
2022-08-25T10:41:35.723Z,2.83
2022-08-25T10:44:46.010Z,2.50
2022-08-25T10:47:41.601Z,2.42
2022-08-25T10:53:01.340Z,2.38
2022-08-25T10:55:46.679Z,2.10
2022-08-25T10:58:44.501Z,2.22
2022-08-25T11:01:43.971Z,2.03
2022-08-25T11:04:43.698Z,2.88
2022-08-25T11:07:20.657Z,2.63
2022-08-25T11:09:51.056Z,3.00
2022-08-25T11:12:43.601Z,2.20
2022-08-25T11:15:17.328Z,2.20
2022-08-25T11:17:55.038Z,2.42
2022-08-25T11:20:28.340Z,2.72
2022-08-25T11:23:27.495Z,2.63
2022-08-25T11:26:01.548Z,2.70
2022-08-25T11:28:37.323Z,2.38
2022-08-25T11:31:05.402Z,2.60
2022-08-25T11:33:33.625Z,2.50
2022-08-25T11:36:03.025Z,2.25
2022-08-25T11:38:48.184Z,2.80
2022-08-25T11:41:37.708Z,2.22
2022-08-25T11:44:25.046Z,2.70
2022-08-25T11:47:21.510Z,2.40
2022-08-25T11:50:25.809Z,2.88
2022-08-25T11:52:56.510Z,2.50
2022-08-25T11:55:35.079Z,2.53
2022-08-25T11:58:33.080Z,2.78
2022-08-25T12:01:04.895Z,2.35
2022-08-25T12:03:37.188Z,2.30
2022-08-25T12:06:27.294Z,2.53
2022-08-25T12:09:17.901Z,2.40
2022-08-25T12:11:47.695Z,2.53
2022-08-25T12:14:22.817Z,2.13
2022-08-25T12:16:56.160Z,2.30
2022-08-25T12:19:36.544Z,1.58
2022-08-25T12:22:04.638Z,2.10
2022-08-25T12:24:37.266Z,2.40
2022-08-25T12:27:06.741Z,2.00
2022-08-25T12:29:52.636Z,2.38
2022-08-25T12:32:56.151Z,2.47
2022-08-25T12:35:51.764Z,2.30
2022-08-25T12:38:43.567Z,2.15
2022-08-25T12:41:31.532Z,2.17
2022-08-25T12:44:39.614Z,2.20
2022-08-25T12:47:29.801Z,1.90
2022-08-25T12:50:24.421Z,2.30
2022-08-25T12:52:53.601Z,2.20
2022-08-25T12:55:21.926Z,2.17
2022-08-25T12:57:58.577Z,2.88
2022-08-25T13:03:15.262Z,2.53
2022-08-25T13:06:28.080Z,2.30
2022-08-25T13:09:28.524Z,2.83
2022-08-25T13:12:04.371Z,2.40
2022-08-25T13:14:39.822Z,2.97
2022-08-25T13:17:07.098Z,2.13
2022-08-25T13:19:37.604Z,2.30
2022-08-25T13:22:16.235Z,2.65
2022-08-25T13:24:47.564Z,2.25
2022-08-25T13:27:26.410Z,2.00
2022-08-25T13:29:56.819Z,2.38
2022-08-25T13:32:35.336Z,1.90
2022-08-25T13:35:19.682Z,2.25
2022-08-25T13:37:46.704Z,2.25
2022-08-25T13:40:19.650Z,2.20
2022-08-25T13:42:55.898Z,2.60
2022-08-25T13:45:28.912Z,2.72
2022-08-25T13:47:58.692Z,2.40
2022-08-25T13:50:31.274Z,2.08
2022-08-25T13:53:04.880Z,2.22
2022-08-25T13:55:51.696Z,2.80
2022-08-25T13:58:46.386Z,2.63
2022-08-25T14:01:49.116Z,2.67
2022-08-25T14:04:32.403Z,2.80
2022-08-25T14:07:20.891Z,2.40
2022-08-25T14:09:58.467Z,2.75
2022-08-25T14:12:30.802Z,2.78
2022-08-25T14:15:06.676Z,2.55
2022-08-25T14:17:39.108Z,2.40
2022-08-25T14:20:28.883Z,2.33
2022-08-25T14:22:59.228Z,2.88
2022-08-25T14:25:28.644Z,2.72
2022-08-25T14:28:07.307Z,2.63
2022-08-25T14:30:37.101Z,2.22
2022-08-25T14:33:05.307Z,2.42
2022-08-25T14:35:34.273Z,2.65
2022-08-25T14:38:07.483Z,2.78
2022-08-25T14:40:35.371Z,2.88
2022-08-25T14:43:02.116Z,2.42
2022-08-25T14:45:28.979Z,2.55
2022-08-25T14:48:02.059Z,2.40
2022-08-25T14:50:29.863Z,2.40
2022-08-25T14:52:58.352Z,2.35
2022-08-25T14:55:32.255Z,2.60
2022-08-25T14:57:59.920Z,2.53
2022-08-25T15:00:26.504Z,3.03
2022-08-25T15:02:55.043Z,3.22
2022-08-25T15:05:26.981Z,2.90
2022-08-25T15:08:14.160Z,2.30
2022-08-25T15:10:41.829Z,2.88
2022-08-25T15:13:10.588Z,2.83
2022-08-25T15:15:40.212Z,2.70
2022-08-25T15:18:20.457Z,2.40
2022-08-25T15:20:47.120Z,2.72
2022-08-25T15:23:18.573Z,2.50
2022-08-25T15:25:52.807Z,2.45
2022-08-25T15:28:22.290Z,2.60
2022-08-25T15:30:49.651Z,2.88
2022-08-25T15:33:16.693Z,2.78
2022-08-25T15:35:43.699Z,2.92
2022-08-25T15:38:11.958Z,2.70
2022-08-25T15:40:39.845Z,2.35
2022-08-25T15:43:06.921Z,2.42
2022-08-25T15:45:35.961Z,2.45
2022-08-25T15:48:03.578Z,2.75
2022-08-25T15:50:30.396Z,2.55
2022-08-25T15:52:57.800Z,2.58
2022-08-25T15:55:24.738Z,2.70
2022-08-25T15:57:51.371Z,2.45
2022-08-25T16:00:19.360Z,2.95
2022-08-25T16:02:48.196Z,2.33
2022-08-25T16:05:16.419Z,2.10
2022-08-25T16:07:45.847Z,2.40
2022-08-25T16:10:13.559Z,2.40
2022-08-25T16:12:42.615Z,2.65
2022-08-25T16:15:10.103Z,2.30
2022-08-25T16:17:40.799Z,3.65
2022-08-25T16:20:13.949Z,2.85
2022-08-25T16:22:41.271Z,2.47
2022-08-25T16:25:08.615Z,3.78
2022-08-25T16:27:38.610Z,2.30
2022-08-25T16:30:07.072Z,2.13
2022-08-25T16:32:33.623Z,2.25
2022-08-25T16:35:00.649Z,2.17
2022-08-25T16:37:27.883Z,2.20
2022-08-25T16:39:55.461Z,3.05
2022-08-25T16:42:22.273Z,2.15
2022-08-25T16:44:48.912Z,2.40
2022-08-25T16:47:25.191Z,2.60
2022-08-25T16:49:54.026Z,2.50
2022-08-25T16:52:40.742Z,3.33
2022-08-25T16:55:13.785Z,2.33
2022-08-25T16:57:43.969Z,2.30
2022-08-25T17:00:14.394Z,7.63
2022-08-25T17:02:42.181Z,6.60
2022-08-25T17:05:11.517Z,2.35
2022-08-25T17:07:38.137Z,2.67
2022-08-25T17:10:05.957Z,2.35
2022-08-25T17:12:33.127Z,2.22
2022-08-25T17:15:00.555Z,2.00
2022-08-25T17:17:27.298Z,2.70
2022-08-25T17:19:56.446Z,2.95
2022-08-25T17:22:22.972Z,3.00
2022-08-25T17:25:00.895Z,2.15
2022-08-25T17:27:28.152Z,2.70
2022-08-25T17:29:55.941Z,2.38
2022-08-25T17:32:30.213Z,3.33
2022-08-25T17:34:57.392Z,2.17
2022-08-25T17:37:24.463Z,2.58
2022-08-25T17:39:54.393Z,2.42
2022-08-25T17:42:42.817Z,3.35
2022-08-25T17:45:15.605Z,3.00
2022-08-25T17:47:42.605Z,3.03
2022-08-25T17:50:09.825Z,2.30
2022-08-25T17:52:36.381Z,2.30
2022-08-25T17:55:03.454Z,2.45
2022-08-25T17:57:29.991Z,3.20
2022-08-25T17:59:56.558Z,3.00
2022-08-25T18:02:23.145Z,2.92
2022-08-25T18:04:50.094Z,2.90
2022-08-25T18:07:16.799Z,2.92
2022-08-25T18:09:44.052Z,2.60
2022-08-25T18:12:12.051Z,2.50
2022-08-25T18:14:38.576Z,2.70
2022-08-25T18:17:05.297Z,2.63
2022-08-25T18:19:32.918Z,2.50
2022-08-25T18:22:04.166Z,2.45
2022-08-25T18:24:31.086Z,2.75
2022-08-25T18:26:57.732Z,3.00
2022-08-25T18:29:24.913Z,2.85
2022-08-25T18:31:53.661Z,3.08
2022-08-25T18:34:23.966Z,2.50
2022-08-25T18:36:51.252Z,2.60
2022-08-25T18:39:37.465Z,3.00
2022-08-25T18:42:07.468Z,2.90
2022-08-25T18:44:34.257Z,2.55
2022-08-25T18:47:00.945Z,3.00
2022-08-25T18:49:34.813Z,2.83
2022-08-25T18:52:01.391Z,2.70
2022-08-25T18:54:28.115Z,2.75
2022-08-25T18:56:54.755Z,3.15
2022-08-25T18:59:23.711Z,3.15
2022-08-25T19:01:52.605Z,3.47
2022-08-25T19:04:19.702Z,3.58
2022-08-25T19:06:46.366Z,3.80
2022-08-25T19:09:13.118Z,3.42
2022-08-25T19:11:39.740Z,3.40
2022-08-25T19:14:12.203Z,3.80
2022-08-25T19:16:41.494Z,3.65
2022-08-25T19:19:12.595Z,3.65
2022-08-25T19:21:40.918Z,3.35
2022-08-25T19:24:09.934Z,3.45
2022-08-25T19:26:37.272Z,4.53
2022-08-25T19:29:09.097Z,3.28
2022-08-25T19:31:36.961Z,3.70
2022-08-25T19:34:05.195Z,4.07
2022-08-25T19:36:31.895Z,4.07
2022-08-25T19:39:00.481Z,4.72
2022-08-25T19:41:28.961Z,4.50
2022-08-25T19:43:57.487Z,4.32
2022-08-25T19:46:32.620Z,4.57
2022-08-25T19:49:06.882Z,6.47
2022-08-25T19:51:39.288Z,5.17
2022-08-25T19:54:08.975Z,5.28
2022-08-25T19:56:43.662Z,4.18
2022-08-25T19:59:26.658Z,3.67
2022-08-25T20:02:01.633Z,4.88
2022-08-25T20:04:28.628Z,3.83
2022-08-25T20:06:55.976Z,4.53
2022-08-25T20:09:39.336Z,4.05
2022-08-25T20:12:09.223Z,3.90
2022-08-25T20:14:36.476Z,3.90
2022-08-25T20:17:03.926Z,4.00
2022-08-25T20:19:40.919Z,3.92
2022-08-25T20:22:09.170Z,3.45
2022-08-25T20:24:51.107Z,3.95
2022-08-25T20:27:25.960Z,4.00
2022-08-25T20:29:53.442Z,4.10
2022-08-25T20:32:20.364Z,4.03
2022-08-25T20:34:49.028Z,4.22
2022-08-25T20:37:16.571Z,4.18
2022-08-25T20:39:43.299Z,5.07
2022-08-25T20:42:10.218Z,5.00
2022-08-25T20:44:41.926Z,4.50
2022-08-25T20:47:10.597Z,3.92
2022-08-25T20:49:39.480Z,5.13
2022-08-25T20:52:07.765Z,4.63
2022-08-25T20:54:34.527Z,3.85
2022-08-25T20:57:02.476Z,4.15
2022-08-25T20:59:29.642Z,4.18
2022-08-25T21:01:56.591Z,4.72
2022-08-25T21:04:26.630Z,5.03
2022-08-25T21:06:53.296Z,4.30
2022-08-25T21:09:22.879Z,3.85
2022-08-25T21:11:53.148Z,4.45
2022-08-25T21:14:21.059Z,4.50
2022-08-25T21:16:48.942Z,4.65
2022-08-25T21:19:18.223Z,4.88
2022-08-25T21:21:59.535Z,5.05
2022-08-25T21:24:28.193Z,4.10
2022-08-25T21:26:56.387Z,4.57
2022-08-25T21:29:25.772Z,3.95
2022-08-25T21:31:56.424Z,5.03
2022-08-25T21:34:23.229Z,4.18
2022-08-25T21:36:50.016Z,4.82
2022-08-25T21:39:17.162Z,5.07
2022-08-25T21:41:45.514Z,5.38
2022-08-25T21:44:13.156Z,4.32
2022-08-25T21:46:40.938Z,4.28
2022-08-25T21:49:08.546Z,4.78
2022-08-25T21:51:41.568Z,4.10
2022-08-25T21:54:15.257Z,5.10
2022-08-25T21:56:59.333Z,4.80
2022-08-25T21:59:29.321Z,5.32
2022-08-25T22:01:57.568Z,4.78
2022-08-25T22:04:25.221Z,4.22
2022-08-25T22:06:52.168Z,5.10
2022-08-25T22:09:19.054Z,4.85
2022-08-25T22:11:46.300Z,4.72
2022-08-25T22:14:15.148Z,4.90
2022-08-25T22:16:42.515Z,5.03
2022-08-25T22:19:12.377Z,5.00
2022-08-25T22:21:40.869Z,4.43
2022-08-25T22:24:07.742Z,4.88
2022-08-25T22:26:35.841Z,4.82
2022-08-25T22:29:02.980Z,5.53
2022-08-25T22:31:32.337Z,4.65
2022-08-25T22:33:58.906Z,5.78
2022-08-25T22:36:29.469Z,5.15
2022-08-25T22:38:57.197Z,4.30
2022-08-25T22:41:27.036Z,4.75
2022-08-25T22:43:56.084Z,4.60
2022-08-25T22:46:23.946Z,4.15
2022-08-25T22:48:51.621Z,5.10
2022-08-25T22:51:23.296Z,5.10
2022-08-25T22:53:50.221Z,4.43
2022-08-25T22:56:20.881Z,4.72
2022-08-25T22:58:51.457Z,4.65
2022-08-25T23:01:20.109Z,5.18
2022-08-25T23:03:47.611Z,4.82
2022-08-25T23:06:22.117Z,4.65
2022-08-25T23:08:53.656Z,4.75
2022-08-25T23:11:22.051Z,4.75
2022-08-25T23:13:48.735Z,4.40
2022-08-25T23:16:15.870Z,4.38
2022-08-25T23:18:44.684Z,4.72
2022-08-25T23:21:35.101Z,4.82
2022-08-25T23:24:05.618Z,3.72
2022-08-25T23:26:36.309Z,3.97
2022-08-25T23:29:03.328Z,4.45
2022-08-25T23:31:44.920Z,4.15
2022-08-25T23:34:11.640Z,3.72
2022-08-25T23:36:39.934Z,4.30
2022-08-25T23:39:07.802Z,5.55
2022-08-25T23:41:36.904Z,4.95
2022-08-25T23:44:05.628Z,5.13
2022-08-25T23:46:34.921Z,5.72
2022-08-25T23:49:04.052Z,6.10
2022-08-25T23:51:34.511Z,6.57
2022-08-25T23:54:05.831Z,6.47
2022-08-25T23:56:34.418Z,7.88
2022-08-25T23:59:02.996Z,7.25
